sensor_id;sensor_type;location;lat;lon;timestamp;P1;durP1;ratioP1;P2;durP2;ratioP2
568;SDS011;269;48.884;9.192;2023-06-22T00:00:14;8.80;;;8.10;;
568;SDS011;269;48.884;9.192;2023-06-22T00:02:41;8.87;;;8.10;;
568;SDS011;269;48.884;9.192;2023-06-22T00:05:08;8.97;;;8.27;;
568;SDS011;269;48.884;9.192;2023-06-22T00:07:36;9.50;;;8.70;;
568;SDS011;269;48.884;9.192;2023-06-22T00:10:04;9.50;;;8.80;;
568;SDS011;269;48.884;9.192;2023-06-22T00:12:32;9.80;;;8.80;;
568;SDS011;269;48.884;9.192;2023-06-22T00:15:03;9.13;;;8.33;;
568;SDS011;269;48.884;9.192;2023-06-22T00:17:30;9.10;;;8.37;;
568;SDS011;269;48.884;9.192;2023-06-22T00:19:57;10.03;;;9.10;;
568;SDS011;269;48.884;9.192;2023-06-22T00:22:25;10.10;;;9.30;;
568;SDS011;269;48.884;9.192;2023-06-22T00:24:55;9.20;;;8.50;;
568;SDS011;269;48.884;9.192;2023-06-22T00:27:23;8.20;;;7.50;;
568;SDS011;269;48.884;9.192;2023-06-22T00:29:50;9.20;;;8.40;;
568;SDS011;269;48.884;9.192;2023-06-22T00:32:17;8.87;;;8.17;;
568;SDS011;269;48.884;9.192;2023-06-22T00:34:44;9.37;;;8.57;;
568;SDS011;269;48.884;9.192;2023-06-22T00:37:11;9.30;;;8.50;;
568;SDS011;269;48.884;9.192;2023-06-22T00:39:38;9.40;;;8.77;;
568;SDS011;269;48.884;9.192;2023-06-22T00:42:06;9.67;;;8.93;;
568;SDS011;269;48.884;9.192;2023-06-22T00:44:34;10.30;;;9.43;;
568;SDS011;269;48.884;9.192;2023-06-22T00:47:01;9.83;;;8.93;;
568;SDS011;269;48.884;9.192;2023-06-22T00:49:29;10.10;;;9.40;;
568;SDS011;269;48.884;9.192;2023-06-22T00:51:57;9.20;;;8.40;;
568;SDS011;269;48.884;9.192;2023-06-22T00:54:24;10.20;;;9.40;;
568;SDS011;269;48.884;9.192;2023-06-22T00:56:51;10.60;;;9.47;;
568;SDS011;269;48.884;9.192;2023-06-22T00:59:23;10.63;;;9.73;;
568;SDS011;269;48.884;9.192;2023-06-22T01:01:51;10.33;;;9.47;;
568;SDS011;269;48.884;9.192;2023-06-22T01:04:18;9.60;;;8.70;;
568;SDS011;269;48.884;9.192;2023-06-22T01:06:46;9.30;;;8.60;;
568;SDS011;269;48.884;9.192;2023-06-22T01:09:22;10.27;;;9.40;;
568;SDS011;269;48.884;9.192;2023-06-22T01:11:55;10.57;;;9.73;;
568;SDS011;269;48.884;9.192;2023-06-22T01:14:28;10.63;;;9.53;;
568;SDS011;269;48.884;9.192;2023-06-22T01:17:03;9.63;;;8.53;;
568;SDS011;269;48.884;9.192;2023-06-22T01:19:37;9.47;;;8.67;;
568;SDS011;269;48.884;9.192;2023-06-22T01:22:13;8.83;;;7.97;;
568;SDS011;269;48.884;9.192;2023-06-22T01:24:47;9.90;;;9.00;;
568;SDS011;269;48.884;9.192;2023-06-22T01:27:25;9.67;;;8.87;;
568;SDS011;269;48.884;9.192;2023-06-22T01:30:01;9.43;;;8.70;;
568;SDS011;269;48.884;9.192;2023-06-22T01:32:32;9.70;;;8.90;;
568;SDS011;269;48.884;9.192;2023-06-22T01:35:01;8.67;;;8.00;;
568;SDS011;269;48.884;9.192;2023-06-22T01:37:34;9.03;;;8.33;;
568;SDS011;269;48.884;9.192;2023-06-22T01:40:04;8.90;;;8.30;;
568;SDS011;269;48.884;9.192;2023-06-22T01:42:32;9.13;;;8.37;;
568;SDS011;269;48.884;9.192;2023-06-22T01:45:03;7.93;;;7.33;;
568;SDS011;269;48.884;9.192;2023-06-22T01:47:31;9.80;;;9.00;;
568;SDS011;269;48.884;9.192;2023-06-22T01:49:59;9.07;;;8.33;;
568;SDS011;269;48.884;9.192;2023-06-22T01:52:26;9.00;;;8.30;;
568;SDS011;269;48.884;9.192;2023-06-22T01:54:53;8.83;;;8.10;;
568;SDS011;269;48.884;9.192;2023-06-22T01:57:20;9.87;;;8.97;;
568;SDS011;269;48.884;9.192;2023-06-22T01:59:48;9.27;;;8.53;;
568;SDS011;269;48.884;9.192;2023-06-22T02:02:20;9.67;;;8.87;;
568;SDS011;269;48.884;9.192;2023-06-22T02:04:56;9.20;;;8.40;;
568;SDS011;269;48.884;9.192;2023-06-22T02:07:28;9.00;;;8.20;;
568;SDS011;269;48.884;9.192;2023-06-22T02:09:59;9.10;;;8.33;;
568;SDS011;269;48.884;9.192;2023-06-22T02:12:28;9.70;;;8.80;;
568;SDS011;269;48.884;9.192;2023-06-22T02:14:57;8.97;;;8.20;;
568;SDS011;269;48.884;9.192;2023-06-22T02:17:27;9.70;;;8.20;;
568;SDS011;269;48.884;9.192;2023-06-22T02:19:58;8.87;;;8.17;;
568;SDS011;269;48.884;9.192;2023-06-22T02:22:25;9.37;;;8.67;;
568;SDS011;269;48.884;9.192;2023-06-22T02:24:52;9.67;;;8.77;;
568;SDS011;269;48.884;9.192;2023-06-22T02:27:20;8.03;;;7.37;;
568;SDS011;269;48.884;9.192;2023-06-22T02:29:47;8.40;;;7.70;;
568;SDS011;269;48.884;9.192;2023-06-22T02:32:14;9.40;;;8.60;;
568;SDS011;269;48.884;9.192;2023-06-22T02:34:44;8.27;;;7.67;;
568;SDS011;269;48.884;9.192;2023-06-22T02:37:13;9.20;;;8.40;;
568;SDS011;269;48.884;9.192;2023-06-22T02:39:41;8.23;;;7.47;;
568;SDS011;269;48.884;9.192;2023-06-22T02:42:08;8.17;;;7.57;;
568;SDS011;269;48.884;9.192;2023-06-22T02:44:36;9.03;;;8.23;;
568;SDS011;269;48.884;9.192;2023-06-22T02:47:03;8.43;;;7.60;;
568;SDS011;269;48.884;9.192;2023-06-22T02:49:31;8.67;;;7.97;;
568;SDS011;269;48.884;9.192;2023-06-22T02:51:59;8.00;;;7.40;;
568;SDS011;269;48.884;9.192;2023-06-22T02:54:26;8.07;;;7.47;;
568;SDS011;269;48.884;9.192;2023-06-22T02:56:53;8.27;;;7.43;;
568;SDS011;269;48.884;9.192;2023-06-22T02:59:21;8.03;;;7.37;;
568;SDS011;269;48.884;9.192;2023-06-22T03:01:49;8.73;;;8.03;;
568;SDS011;269;48.884;9.192;2023-06-22T03:04:16;8.90;;;8.17;;
568;SDS011;269;48.884;9.192;2023-06-22T03:06:43;8.37;;;7.67;;
568;SDS011;269;48.884;9.192;2023-06-22T03:09:11;9.87;;;8.97;;
568;SDS011;269;48.884;9.192;2023-06-22T03:11:38;9.03;;;8.33;;
568;SDS011;269;48.884;9.192;2023-06-22T03:14:05;8.30;;;7.60;;
568;SDS011;269;48.884;9.192;2023-06-22T03:16:32;9.97;;;9.13;;
568;SDS011;269;48.884;9.192;2023-06-22T03:18:59;8.87;;;8.03;;
568;SDS011;269;48.884;9.192;2023-06-22T03:21:27;8.47;;;7.83;;
568;SDS011;269;48.884;9.192;2023-06-22T03:23:55;8.20;;;7.50;;
568;SDS011;269;48.884;9.192;2023-06-22T03:26:23;8.50;;;7.77;;
568;SDS011;269;48.884;9.192;2023-06-22T03:28:52;9.40;;;8.60;;
568;SDS011;269;48.884;9.192;2023-06-22T03:31:19;11.17;;;10.17;;
568;SDS011;269;48.884;9.192;2023-06-22T03:33:47;9.73;;;9.03;;
568;SDS011;269;48.884;9.192;2023-06-22T03:36:14;10.73;;;9.87;;
568;SDS011;269;48.884;9.192;2023-06-22T03:38:44;10.17;;;9.37;;
568;SDS011;269;48.884;9.192;2023-06-22T03:41:11;10.73;;;9.83;;
568;SDS011;269;48.884;9.192;2023-06-22T03:43:40;11.73;;;10.57;;
568;SDS011;269;48.884;9.192;2023-06-22T03:46:07;10.53;;;9.63;;
568;SDS011;269;48.884;9.192;2023-06-22T03:48:35;10.00;;;9.20;;
568;SDS011;269;48.884;9.192;2023-06-22T03:51:02;10.07;;;9.37;;
568;SDS011;269;48.884;9.192;2023-06-22T03:53:29;9.80;;;8.80;;
568;SDS011;269;48.884;9.192;2023-06-22T03:55:56;9.90;;;9.00;;
568;SDS011;269;48.884;9.192;2023-06-22T03:58:23;9.93;;;9.13;;
568;SDS011;269;48.884;9.192;2023-06-22T04:00:52;9.97;;;8.97;;
568;SDS011;269;48.884;9.192;2023-06-22T04:03:19;10.07;;;9.13;;
568;SDS011;269;48.884;9.192;2023-06-22T04:05:47;10.03;;;9.00;;
568;SDS011;269;48.884;9.192;2023-06-22T04:08:14;9.30;;;8.60;;
568;SDS011;269;48.884;9.192;2023-06-22T04:10:42;9.10;;;8.30;;
568;SDS011;269;48.884;9.192;2023-06-22T04:13:10;9.00;;;8.30;;
568;SDS011;269;48.884;9.192;2023-06-22T04:15:37;9.70;;;8.80;;
568;SDS011;269;48.884;9.192;2023-06-22T04:18:05;11.87;;;10.73;;
568;SDS011;269;48.884;9.192;2023-06-22T04:20:32;10.60;;;9.77;;
568;SDS011;269;48.884;9.192;2023-06-22T04:22:59;9.50;;;8.60;;
568;SDS011;269;48.884;9.192;2023-06-22T04:25:26;9.97;;;9.23;;
568;SDS011;269;48.884;9.192;2023-06-22T04:27:53;10.07;;;9.27;;
568;SDS011;269;48.884;9.192;2023-06-22T04:30:21;10.73;;;9.83;;
568;SDS011;269;48.884;9.192;2023-06-22T04:32:48;8.93;;;8.23;;
568;SDS011;269;48.884;9.192;2023-06-22T04:35:23;10.63;;;9.73;;
568;SDS011;269;48.884;9.192;2023-06-22T04:37:50;11.00;;;10.00;;
568;SDS011;269;48.884;9.192;2023-06-22T04:40:20;10.37;;;9.40;;
568;SDS011;269;48.884;9.192;2023-06-22T04:42:48;10.80;;;9.90;;
568;SDS011;269;48.884;9.192;2023-06-22T04:45:19;10.67;;;9.77;;
568;SDS011;269;48.884;9.192;2023-06-22T04:47:47;11.60;;;10.50;;
568;SDS011;269;48.884;9.192;2023-06-22T04:50:14;11.30;;;10.40;;
568;SDS011;269;48.884;9.192;2023-06-22T04:52:43;10.83;;;9.83;;
568;SDS011;269;48.884;9.192;2023-06-22T04:55:11;12.07;;;11.03;;
568;SDS011;269;48.884;9.192;2023-06-22T04:57:43;10.57;;;9.67;;
568;SDS011;269;48.884;9.192;2023-06-22T05:00:14;11.90;;;10.80;;
568;SDS011;269;48.884;9.192;2023-06-22T05:02:43;9.67;;;8.87;;
568;SDS011;269;48.884;9.192;2023-06-22T05:05:11;10.30;;;9.40;;
568;SDS011;269;48.884;9.192;2023-06-22T05:07:40;11.43;;;10.53;;
568;SDS011;269;48.884;9.192;2023-06-22T05:10:10;11.33;;;10.43;;
568;SDS011;269;48.884;9.192;2023-06-22T05:12:38;12.23;;;11.23;;
568;SDS011;269;48.884;9.192;2023-06-22T05:15:07;11.97;;;10.90;;
568;SDS011;269;48.884;9.192;2023-06-22T05:17:35;10.57;;;9.60;;
568;SDS011;269;48.884;9.192;2023-06-22T05:20:08;10.17;;;9.23;;
568;SDS011;269;48.884;9.192;2023-06-22T05:22:36;11.30;;;10.20;;
568;SDS011;269;48.884;9.192;2023-06-22T05:25:04;11.13;;;10.13;;
568;SDS011;269;48.884;9.192;2023-06-22T05:27:34;10.40;;;9.50;;
568;SDS011;269;48.884;9.192;2023-06-22T05:30:05;10.67;;;9.63;;
568;SDS011;269;48.884;9.192;2023-06-22T05:32:33;11.23;;;10.23;;
568;SDS011;269;48.884;9.192;2023-06-22T05:35:00;10.43;;;9.20;;
568;SDS011;269;48.884;9.192;2023-06-22T05:37:28;10.10;;;9.20;;
568;SDS011;269;48.884;9.192;2023-06-22T05:39:56;10.70;;;9.73;;
568;SDS011;269;48.884;9.192;2023-06-22T05:42:23;11.33;;;10.33;;
568;SDS011;269;48.884;9.192;2023-06-22T05:44:52;9.17;;;8.47;;
568;SDS011;269;48.884;9.192;2023-06-22T05:47:19;11.43;;;10.37;;
568;SDS011;269;48.884;9.192;2023-06-22T05:49:48;10.17;;;9.27;;
568;SDS011;269;48.884;9.192;2023-06-22T05:52:15;11.00;;;10.07;;
568;SDS011;269;48.884;9.192;2023-06-22T05:54:42;10.50;;;9.50;;
568;SDS011;269;48.884;9.192;2023-06-22T05:57:09;11.23;;;10.30;;
568;SDS011;269;48.884;9.192;2023-06-22T05:59:36;10.93;;;9.03;;
568;SDS011;269;48.884;9.192;2023-06-22T06:02:05;11.37;;;10.23;;
568;SDS011;269;48.884;9.192;2023-06-22T06:04:32;11.03;;;10.13;;
568;SDS011;269;48.884;9.192;2023-06-22T06:06:59;11.23;;;10.30;;
568;SDS011;269;48.884;9.192;2023-06-22T06:09:27;10.63;;;9.83;;
568;SDS011;269;48.884;9.192;2023-06-22T06:11:54;10.23;;;9.43;;
568;SDS011;269;48.884;9.192;2023-06-22T06:14:21;9.30;;;8.57;;
568;SDS011;269;48.884;9.192;2023-06-22T06:16:49;10.60;;;9.57;;
568;SDS011;269;48.884;9.192;2023-06-22T06:19:17;9.87;;;8.97;;
568;SDS011;269;48.884;9.192;2023-06-22T06:21:44;10.70;;;9.67;;
568;SDS011;269;48.884;9.192;2023-06-22T06:24:11;10.23;;;9.43;;
568;SDS011;269;48.884;9.192;2023-06-22T06:26:39;10.60;;;9.80;;
568;SDS011;269;48.884;9.192;2023-06-22T06:29:06;8.20;;;7.60;;
568;SDS011;269;48.884;9.192;2023-06-22T06:31:33;9.23;;;8.47;;
568;SDS011;269;48.884;9.192;2023-06-22T06:34:01;7.90;;;7.30;;
568;SDS011;269;48.884;9.192;2023-06-22T06:36:30;9.50;;;7.97;;
568;SDS011;269;48.884;9.192;2023-06-22T06:38:57;9.70;;;8.80;;
568;SDS011;269;48.884;9.192;2023-06-22T06:41:24;8.33;;;7.63;;
568;SDS011;269;48.884;9.192;2023-06-22T06:43:51;9.90;;;9.10;;
568;SDS011;269;48.884;9.192;2023-06-22T06:46:18;8.83;;;8.13;;
568;SDS011;269;48.884;9.192;2023-06-22T06:48:45;8.03;;;7.33;;
568;SDS011;269;48.884;9.192;2023-06-22T06:51:12;9.17;;;8.27;;
568;SDS011;269;48.884;9.192;2023-06-22T06:53:41;8.80;;;8.00;;
568;SDS011;269;48.884;9.192;2023-06-22T06:56:08;9.03;;;8.23;;
568;SDS011;269;48.884;9.192;2023-06-22T06:58:36;8.43;;;7.73;;
568;SDS011;269;48.884;9.192;2023-06-22T07:01:03;8.13;;;7.43;;
568;SDS011;269;48.884;9.192;2023-06-22T07:03:30;7.43;;;6.83;;
568;SDS011;269;48.884;9.192;2023-06-22T07:05:58;8.07;;;7.47;;
568;SDS011;269;48.884;9.192;2023-06-22T07:08:26;7.53;;;6.93;;
568;SDS011;269;48.884;9.192;2023-06-22T07:10:54;7.53;;;6.83;;
568;SDS011;269;48.884;9.192;2023-06-22T07:13:21;8.00;;;7.30;;
568;SDS011;269;48.884;9.192;2023-06-22T07:15:49;7.63;;;6.83;;
568;SDS011;269;48.884;9.192;2023-06-22T07:18:16;7.97;;;7.20;;
568;SDS011;269;48.884;9.192;2023-06-22T07:20:43;8.20;;;7.43;;
568;SDS011;269;48.884;9.192;2023-06-22T07:23:10;7.03;;;6.43;;
568;SDS011;269;48.884;9.192;2023-06-22T07:25:37;7.20;;;6.50;;
568;SDS011;269;48.884;9.192;2023-06-22T07:28:06;7.73;;;7.13;;
568;SDS011;269;48.884;9.192;2023-06-22T07:30:34;7.47;;;6.87;;
568;SDS011;269;48.884;9.192;2023-06-22T07:33:01;6.63;;;6.13;;
568;SDS011;269;48.884;9.192;2023-06-22T07:35:29;6.80;;;6.30;;
568;SDS011;269;48.884;9.192;2023-06-22T07:37:57;7.10;;;6.50;;
568;SDS011;269;48.884;9.192;2023-06-22T07:40:25;7.07;;;6.47;;
568;SDS011;269;48.884;9.192;2023-06-22T07:42:52;7.97;;;7.27;;
568;SDS011;269;48.884;9.192;2023-06-22T07:45:21;6.90;;;6.30;;
568;SDS011;269;48.884;9.192;2023-06-22T07:47:49;7.03;;;6.40;;
568;SDS011;269;48.884;9.192;2023-06-22T07:50:16;7.30;;;6.70;;
568;SDS011;269;48.884;9.192;2023-06-22T07:52:43;6.87;;;6.27;;
568;SDS011;269;48.884;9.192;2023-06-22T07:55:11;7.63;;;6.93;;
568;SDS011;269;48.884;9.192;2023-06-22T07:57:38;6.80;;;6.13;;
568;SDS011;269;48.884;9.192;2023-06-22T08:00:07;6.47;;;5.97;;
568;SDS011;269;48.884;9.192;2023-06-22T08:02:39;5.70;;;5.20;;
568;SDS011;269;48.884;9.192;2023-06-22T08:05:07;6.70;;;6.10;;
568;SDS011;269;48.884;9.192;2023-06-22T08:07:35;6.40;;;5.80;;
568;SDS011;269;48.884;9.192;2023-06-22T08:10:03;6.53;;;6.03;;
568;SDS011;269;48.884;9.192;2023-06-22T08:12:31;6.37;;;5.73;;
568;SDS011;269;48.884;9.192;2023-06-22T08:14:58;6.50;;;5.90;;
568;SDS011;269;48.884;9.192;2023-06-22T08:17:25;6.60;;;6.00;;
568;SDS011;269;48.884;9.192;2023-06-22T08:19:54;6.23;;;5.73;;
568;SDS011;269;48.884;9.192;2023-06-22T08:22:21;6.63;;;6.03;;
568;SDS011;269;48.884;9.192;2023-06-22T08:24:48;7.03;;;6.40;;
568;SDS011;269;48.884;9.192;2023-06-22T08:27:16;5.80;;;5.40;;
568;SDS011;269;48.884;9.192;2023-06-22T08:29:46;6.17;;;5.60;;
568;SDS011;269;48.884;9.192;2023-06-22T08:32:13;5.80;;;5.33;;
568;SDS011;269;48.884;9.192;2023-06-22T08:34:40;6.13;;;5.33;;
568;SDS011;269;48.884;9.192;2023-06-22T08:37:09;5.97;;;5.47;;
568;SDS011;269;48.884;9.192;2023-06-22T08:39:37;7.00;;;6.30;;
568;SDS011;269;48.884;9.192;2023-06-22T08:42:05;9.77;;;5.87;;
568;SDS011;269;48.884;9.192;2023-06-22T08:44:32;6.17;;;5.63;;
568;SDS011;269;48.884;9.192;2023-06-22T08:46:59;6.80;;;6.20;;
568;SDS011;269;48.884;9.192;2023-06-22T08:49:27;8.83;;;6.20;;
568;SDS011;269;48.884;9.192;2023-06-22T08:51:54;6.90;;;5.40;;
568;SDS011;269;48.884;9.192;2023-06-22T08:54:23;6.70;;;6.00;;
568;SDS011;269;48.884;9.192;2023-06-22T08:56:50;6.13;;;5.60;;
568;SDS011;269;48.884;9.192;2023-06-22T08:59:18;6.40;;;5.90;;
568;SDS011;269;48.884;9.192;2023-06-22T09:01:45;5.67;;;5.17;;
568;SDS011;269;48.884;9.192;2023-06-22T09:04:14;6.03;;;5.43;;
568;SDS011;269;48.884;9.192;2023-06-22T09:06:42;6.97;;;6.27;;
568;SDS011;269;48.884;9.192;2023-06-22T09:09:12;6.13;;;5.60;;
568;SDS011;269;48.884;9.192;2023-06-22T09:11:41;6.90;;;6.30;;
568;SDS011;269;48.884;9.192;2023-06-22T09:14:08;7.37;;;5.70;;
568;SDS011;269;48.884;9.192;2023-06-22T09:16:35;5.93;;;5.03;;
568;SDS011;269;48.884;9.192;2023-06-22T09:19:02;7.20;;;5.57;;
568;SDS011;269;48.884;9.192;2023-06-22T09:21:29;8.50;;;5.80;;
568;SDS011;269;48.884;9.192;2023-06-22T09:23:56;6.83;;;6.13;;
568;SDS011;269;48.884;9.192;2023-06-22T09:26:24;7.33;;;6.60;;
568;SDS011;269;48.884;9.192;2023-06-22T09:28:52;6.70;;;6.10;;
568;SDS011;269;48.884;9.192;2023-06-22T09:31:20;6.43;;;5.77;;
568;SDS011;269;48.884;9.192;2023-06-22T09:33:51;7.47;;;6.77;;
568;SDS011;269;48.884;9.192;2023-06-22T09:36:19;7.60;;;5.80;;
568;SDS011;269;48.884;9.192;2023-06-22T09:38:47;7.23;;;6.13;;
568;SDS011;269;48.884;9.192;2023-06-22T09:41:20;5.93;;;5.30;;
568;SDS011;269;48.884;9.192;2023-06-22T09:43:47;5.50;;;5.00;;
568;SDS011;269;48.884;9.192;2023-06-22T09:46:16;6.70;;;6.07;;
568;SDS011;269;48.884;9.192;2023-06-22T09:48:43;6.93;;;6.27;;
568;SDS011;269;48.884;9.192;2023-06-22T09:51:11;5.93;;;5.27;;
568;SDS011;269;48.884;9.192;2023-06-22T09:53:38;7.37;;;5.87;;
568;SDS011;269;48.884;9.192;2023-06-22T09:56:06;5.73;;;5.13;;
568;SDS011;269;48.884;9.192;2023-06-22T09:58:36;6.07;;;5.47;;
568;SDS011;269;48.884;9.192;2023-06-22T10:01:03;6.03;;;5.53;;
568;SDS011;269;48.884;9.192;2023-06-22T10:03:32;5.60;;;5.10;;
568;SDS011;269;48.884;9.192;2023-06-22T10:05:59;7.17;;;5.40;;
568;SDS011;269;48.884;9.192;2023-06-22T10:08:26;6.13;;;5.53;;
568;SDS011;269;48.884;9.192;2023-06-22T10:10:53;6.00;;;5.40;;
568;SDS011;269;48.884;9.192;2023-06-22T10:13:20;6.60;;;6.00;;
568;SDS011;269;48.884;9.192;2023-06-22T10:15:47;6.43;;;5.93;;
568;SDS011;269;48.884;9.192;2023-06-22T10:18:16;6.53;;;5.70;;
568;SDS011;269;48.884;9.192;2023-06-22T10:20:46;6.53;;;5.93;;
568;SDS011;269;48.884;9.192;2023-06-22T10:23:15;7.43;;;6.10;;
568;SDS011;269;48.884;9.192;2023-06-22T10:25:42;10.07;;;5.70;;
568;SDS011;269;48.884;9.192;2023-06-22T10:28:09;7.93;;;6.07;;
568;SDS011;269;48.884;9.192;2023-06-22T10:30:37;6.17;;;5.57;;
568;SDS011;269;48.884;9.192;2023-06-22T10:33:06;6.37;;;5.70;;
568;SDS011;269;48.884;9.192;2023-06-22T10:35:33;8.00;;;5.77;;
568;SDS011;269;48.884;9.192;2023-06-22T10:38:04;5.87;;;5.20;;
568;SDS011;269;48.884;9.192;2023-06-22T10:40:31;6.80;;;6.00;;
568;SDS011;269;48.884;9.192;2023-06-22T10:42:58;6.20;;;5.60;;
568;SDS011;269;48.884;9.192;2023-06-22T10:45:26;6.33;;;5.73;;
568;SDS011;269;48.884;9.192;2023-06-22T10:47:54;5.80;;;5.20;;
568;SDS011;269;48.884;9.192;2023-06-22T10:50:21;7.23;;;6.00;;
568;SDS011;269;48.884;9.192;2023-06-22T10:52:49;6.90;;;6.13;;
568;SDS011;269;48.884;9.192;2023-06-22T10:55:18;8.63;;;5.33;;
568;SDS011;269;48.884;9.192;2023-06-22T10:57:45;9.87;;;5.50;;
568;SDS011;269;48.884;9.192;2023-06-22T11:00:13;5.70;;;4.80;;
568;SDS011;269;48.884;9.192;2023-06-22T11:02:41;6.90;;;5.57;;
568;SDS011;269;48.884;9.192;2023-06-22T11:05:08;6.30;;;5.17;;
568;SDS011;269;48.884;9.192;2023-06-22T11:07:35;8.90;;;7.17;;
568;SDS011;269;48.884;9.192;2023-06-22T11:10:04;8.07;;;5.77;;
568;SDS011;269;48.884;9.192;2023-06-22T11:12:33;7.40;;;5.43;;
568;SDS011;269;48.884;9.192;2023-06-22T11:15:00;5.93;;;5.33;;
568;SDS011;269;48.884;9.192;2023-06-22T11:17:27;12.13;;;5.30;;
568;SDS011;269;48.884;9.192;2023-06-22T11:19:54;7.97;;;5.60;;
568;SDS011;269;48.884;9.192;2023-06-22T11:22:21;6.37;;;5.77;;
568;SDS011;269;48.884;9.192;2023-06-22T11:24:48;7.37;;;5.80;;
568;SDS011;269;48.884;9.192;2023-06-22T11:27:15;7.43;;;5.83;;
568;SDS011;269;48.884;9.192;2023-06-22T11:29:43;6.20;;;5.30;;
568;SDS011;269;48.884;9.192;2023-06-22T11:32:11;6.10;;;5.60;;
568;SDS011;269;48.884;9.192;2023-06-22T11:34:38;8.97;;;5.50;;
568;SDS011;269;48.884;9.192;2023-06-22T11:37:05;6.23;;;5.40;;
568;SDS011;269;48.884;9.192;2023-06-22T11:39:32;6.43;;;5.80;;
568;SDS011;269;48.884;9.192;2023-06-22T11:41:59;6.30;;;5.73;;
568;SDS011;269;48.884;9.192;2023-06-22T11:44:27;7.33;;;5.57;;
568;SDS011;269;48.884;9.192;2023-06-22T11:46:56;7.37;;;5.30;;
568;SDS011;269;48.884;9.192;2023-06-22T11:49:26;6.40;;;5.70;;
568;SDS011;269;48.884;9.192;2023-06-22T11:51:53;7.97;;;5.87;;
568;SDS011;269;48.884;9.192;2023-06-22T11:54:20;6.97;;;6.37;;
568;SDS011;269;48.884;9.192;2023-06-22T11:56:48;6.93;;;5.57;;
568;SDS011;269;48.884;9.192;2023-06-22T11:59:15;6.60;;;5.60;;
568;SDS011;269;48.884;9.192;2023-06-22T12:01:42;7.90;;;6.00;;
568;SDS011;269;48.884;9.192;2023-06-22T12:04:11;9.63;;;5.83;;
568;SDS011;269;48.884;9.192;2023-06-22T12:06:38;6.80;;;5.80;;
568;SDS011;269;48.884;9.192;2023-06-22T12:09:07;8.53;;;6.03;;
568;SDS011;269;48.884;9.192;2023-06-22T12:11:34;6.30;;;5.70;;
568;SDS011;269;48.884;9.192;2023-06-22T12:14:01;7.80;;;6.37;;
568;SDS011;269;48.884;9.192;2023-06-22T12:16:28;6.53;;;5.80;;
568;SDS011;269;48.884;9.192;2023-06-22T12:18:55;6.00;;;5.50;;
568;SDS011;269;48.884;9.192;2023-06-22T12:21:24;9.80;;;6.17;;
568;SDS011;269;48.884;9.192;2023-06-22T12:23:51;9.97;;;6.00;;
568;SDS011;269;48.884;9.192;2023-06-22T12:26:18;6.03;;;5.40;;
568;SDS011;269;48.884;9.192;2023-06-22T12:28:45;6.93;;;5.90;;
568;SDS011;269;48.884;9.192;2023-06-22T12:31:12;6.90;;;5.80;;
568;SDS011;269;48.884;9.192;2023-06-22T12:33:39;7.80;;;5.60;;
568;SDS011;269;48.884;9.192;2023-06-22T12:36:06;6.60;;;5.43;;
568;SDS011;269;48.884;9.192;2023-06-22T12:38:35;7.13;;;5.50;;
568;SDS011;269;48.884;9.192;2023-06-22T12:41:03;7.30;;;5.77;;
568;SDS011;269;48.884;9.192;2023-06-22T12:43:30;7.17;;;5.93;;
568;SDS011;269;48.884;9.192;2023-06-22T12:45:57;7.07;;;5.83;;
568;SDS011;269;48.884;9.192;2023-06-22T12:48:25;7.73;;;5.63;;
568;SDS011;269;48.884;9.192;2023-06-22T12:50:52;6.50;;;5.90;;
568;SDS011;269;48.884;9.192;2023-06-22T12:53:20;7.10;;;6.40;;
568;SDS011;269;48.884;9.192;2023-06-22T12:55:49;8.50;;;6.30;;
568;SDS011;269;48.884;9.192;2023-06-22T12:58:16;7.40;;;5.87;;
568;SDS011;269;48.884;9.192;2023-06-22T13:00:43;11.40;;;6.83;;
568;SDS011;269;48.884;9.192;2023-06-22T13:03:10;7.30;;;6.03;;
568;SDS011;269;48.884;9.192;2023-06-22T13:05:37;8.73;;;6.80;;
568;SDS011;269;48.884;9.192;2023-06-22T13:08:04;7.07;;;6.37;;
568;SDS011;269;48.884;9.192;2023-06-22T13:10:31;7.33;;;6.57;;
568;SDS011;269;48.884;9.192;2023-06-22T13:12:59;9.53;;;7.10;;
568;SDS011;269;48.884;9.192;2023-06-22T13:15:27;11.03;;;7.23;;
568;SDS011;269;48.884;9.192;2023-06-22T13:17:55;11.07;;;6.70;;
568;SDS011;269;48.884;9.192;2023-06-22T13:20:22;8.53;;;6.63;;
568;SDS011;269;48.884;9.192;2023-06-22T13:22:49;8.20;;;6.73;;
568;SDS011;269;48.884;9.192;2023-06-22T13:25:16;7.90;;;7.10;;
568;SDS011;269;48.884;9.192;2023-06-22T13:27:45;9.70;;;6.47;;
568;SDS011;269;48.884;9.192;2023-06-22T13:30:14;7.30;;;6.67;;
568;SDS011;269;48.884;9.192;2023-06-22T13:32:41;7.40;;;6.37;;
568;SDS011;269;48.884;9.192;2023-06-22T13:35:08;7.80;;;6.80;;
568;SDS011;269;48.884;9.192;2023-06-22T13:37:36;7.73;;;6.10;;
568;SDS011;269;48.884;9.192;2023-06-22T13:40:03;9.10;;;6.10;;
568;SDS011;269;48.884;9.192;2023-06-22T13:42:32;7.97;;;6.27;;
568;SDS011;269;48.884;9.192;2023-06-22T13:44:59;8.23;;;6.47;;
568;SDS011;269;48.884;9.192;2023-06-22T13:47:28;9.23;;;6.63;;
568;SDS011;269;48.884;9.192;2023-06-22T13:49:56;6.70;;;6.03;;
568;SDS011;269;48.884;9.192;2023-06-22T13:52:24;10.40;;;6.67;;
568;SDS011;269;48.884;9.192;2023-06-22T13:54:51;8.07;;;6.37;;
568;SDS011;269;48.884;9.192;2023-06-22T13:57:18;8.17;;;6.27;;
568;SDS011;269;48.884;9.192;2023-06-22T13:59:46;8.40;;;7.17;;
568;SDS011;269;48.884;9.192;2023-06-22T14:02:13;8.20;;;6.40;;
568;SDS011;269;48.884;9.192;2023-06-22T14:04:41;6.33;;;5.73;;
568;SDS011;269;48.884;9.192;2023-06-22T14:07:10;7.27;;;5.90;;
568;SDS011;269;48.884;9.192;2023-06-22T14:09:37;8.43;;;6.53;;
568;SDS011;269;48.884;9.192;2023-06-22T14:12:04;10.40;;;6.93;;
568;SDS011;269;48.884;9.192;2023-06-22T14:14:32;6.47;;;5.80;;
568;SDS011;269;48.884;9.192;2023-06-22T14:16:59;7.93;;;6.67;;
568;SDS011;269;48.884;9.192;2023-06-22T14:19:26;6.43;;;5.83;;
568;SDS011;269;48.884;9.192;2023-06-22T14:21:55;8.57;;;6.60;;
568;SDS011;269;48.884;9.192;2023-06-22T14:24:22;7.10;;;6.40;;
568;SDS011;269;48.884;9.192;2023-06-22T14:26:49;7.43;;;6.57;;
568;SDS011;269;48.884;9.192;2023-06-22T14:29:16;7.73;;;6.93;;
568;SDS011;269;48.884;9.192;2023-06-22T14:31:44;11.70;;;6.93;;
568;SDS011;269;48.884;9.192;2023-06-22T14:34:12;11.33;;;6.67;;
568;SDS011;269;48.884;9.192;2023-06-22T14:36:39;8.17;;;6.57;;
568;SDS011;269;48.884;9.192;2023-06-22T14:39:09;7.63;;;6.20;;
568;SDS011;269;48.884;9.192;2023-06-22T14:41:36;7.47;;;5.73;;
568;SDS011;269;48.884;9.192;2023-06-22T14:44:03;7.50;;;6.20;;
568;SDS011;269;48.884;9.192;2023-06-22T14:46:30;7.83;;;5.40;;
568;SDS011;269;48.884;9.192;2023-06-22T14:48:57;8.80;;;6.03;;
568;SDS011;269;48.884;9.192;2023-06-22T14:51:25;8.70;;;5.70;;
568;SDS011;269;48.884;9.192;2023-06-22T14:53:52;8.67;;;5.80;;
568;SDS011;269;48.884;9.192;2023-06-22T14:56:20;8.40;;;5.80;;
568;SDS011;269;48.884;9.192;2023-06-22T14:58:47;9.23;;;5.30;;
568;SDS011;269;48.884;9.192;2023-06-22T15:01:15;9.60;;;5.70;;
568;SDS011;269;48.884;9.192;2023-06-22T15:03:43;10.43;;;4.20;;
568;SDS011;269;48.884;9.192;2023-06-22T15:06:11;6.70;;;4.47;;
568;SDS011;269;48.884;9.192;2023-06-22T15:08:39;10.67;;;3.80;;
568;SDS011;269;48.884;9.192;2023-06-22T15:11:07;7.40;;;3.77;;
568;SDS011;269;48.884;9.192;2023-06-22T15:13:38;7.67;;;4.00;;
568;SDS011;269;48.884;9.192;2023-06-22T15:16:05;7.23;;;3.80;;
568;SDS011;269;48.884;9.192;2023-06-22T15:18:32;6.77;;;3.40;;
568;SDS011;269;48.884;9.192;2023-06-22T15:21:01;6.73;;;3.97;;
568;SDS011;269;48.884;9.192;2023-06-22T15:23:28;8.97;;;3.60;;
568;SDS011;269;48.884;9.192;2023-06-22T15:25:55;7.73;;;3.70;;
568;SDS011;269;48.884;9.192;2023-06-22T15:28:23;9.30;;;4.03;;
568;SDS011;269;48.884;9.192;2023-06-22T15:30:52;7.63;;;3.77;;
568;SDS011;269;48.884;9.192;2023-06-22T15:33:19;6.90;;;4.30;;
568;SDS011;269;48.884;9.192;2023-06-22T15:35:46;8.43;;;4.00;;
568;SDS011;269;48.884;9.192;2023-06-22T15:38:13;5.93;;;3.50;;
568;SDS011;269;48.884;9.192;2023-06-22T15:40:40;7.50;;;4.07;;
568;SDS011;269;48.884;9.192;2023-06-22T15:43:09;7.37;;;3.73;;
568;SDS011;269;48.884;9.192;2023-06-22T15:45:36;5.50;;;3.57;;